Time;durP1;ratioP1;P1;durP2;ratioP2;P2;SDS_P1;SDS_P2;PMS_P1;PMS_P2;Temp;Humidity;BMP_temperature;BMP_pressure;BME280_temperature;BME280_humidity;BME280_pressure;Samples;Min_cycle;Max_cycle;Signal;HPM_P1;HPM_P2
2022/06/27 00:00:37;;;;;;;0.10;0.10;;;18.90;99.90;;;;;;5088734;28;20040;-71
2022/06/27 00:03:03;;;;;;;0.00;0.00;;;18.80;99.90;;;;;;5069463;28;20123;-71
2022/06/27 00:05:29;;;;;;;0.40;0.40;;;18.80;99.90;;;;;;5070423;28;20048;-71
2022/06/27 00:07:54;;;;;;;0.20;0.20;;;18.70;99.90;;;;;;5051599;28;20088;-71
2022/06/27 00:10:21;;;;;;;0.20;0.20;;;18.70;99.90;;;;;;5067869;28;20044;-71
2022/06/27 00:12:46;;;;;;;0.00;0.00;;;18.60;99.90;;;;;;5048821;28;20056;-71
2022/06/27 00:15:12;;;;;;;0.10;0.10;;;18.60;99.90;;;;;;5039910;28;20045;-71
2022/06/27 00:17:39;;;;;;;0.00;0.00;;;18.60;99.90;;;;;;5048503;28;20483;-71
2022/06/27 00:20:05;;;;;;;0.03;0.03;;;18.50;99.90;;;;;;5032039;28;20602;-71
2022/06/27 00:22:31;;;;;;;0.00;0.00;;;18.60;99.90;;;;;;5049939;28;20055;-71
2022/06/27 00:24:56;;;;;;;0.28;0.28;;;18.50;99.90;;;;;;5090124;28;20040;-71
2022/06/27 00:27:22;;;;;;;0.10;0.10;;;18.50;99.90;;;;;;5070815;28;20041;-71
2022/06/27 00:29:48;;;;;;;0.22;0.20;;;18.50;99.90;;;;;;5047890;28;20079;-71
2022/06/27 00:32:13;;;;;;;0.13;0.13;;;18.50;99.90;;;;;;5032166;28;20074;-71
2022/06/27 00:34:39;;;;;;;0.03;0.03;;;18.40;99.90;;;;;;5049239;28;20491;-71
2022/06/27 00:37:05;;;;;;;0.68;0.68;;;18.40;99.90;;;;;;5060240;28;20415;-71
2022/06/27 00:39:30;;;;;;;0.10;0.10;;;18.40;99.90;;;;;;5051918;28;20063;-71
2022/06/27 00:41:56;;;;;;;0.00;0.00;;;18.40;99.90;;;;;;5050796;28;20060;-71
2022/06/27 00:44:42;;;;;;;0.00;0.00;;;18.40;99.90;;;;;;5068344;28;20076;-71
2022/06/27 00:47:13;;;;;;;0.25;0.25;;;18.30;99.90;;;;;;5079591;28;20471;-71
2022/06/27 00:49:39;;;;;;;0.10;0.10;;;18.30;99.90;;;;;;5071427;28;20423;-71
2022/06/27 00:52:07;;;;;;;0.00;0.00;;;18.40;99.90;;;;;;5080612;28;20153;-71
2022/06/27 00:54:35;;;;;;;6.82;0.43;;;18.40;99.90;;;;;;5047287;28;20060;-71
2022/06/27 00:57:00;;;;;;;0.00;0.00;;;18.40;99.90;;;;;;5047700;28;20044;-71
2022/06/27 00:59:26;;;;;;;0.35;0.28;;;18.30;99.90;;;;;;5060129;28;20097;-71
2022/06/27 01:01:52;;;;;;;0.63;0.63;;;18.40;99.90;;;;;;5067074;28;20032;-71
2022/06/27 01:04:17;;;;;;;0.20;0.20;;;18.30;99.90;;;;;;5051848;28;20109;-71
2022/06/27 01:06:43;;;;;;;0.00;0.00;;;18.20;99.90;;;;;;5064183;28;20047;-71
2022/06/27 01:09:09;;;;;;;0.10;0.10;;;18.20;99.90;;;;;;5055201;28;20050;-71
2022/06/27 01:11:35;;;;;;;0.20;0.20;;;18.30;99.90;;;;;;5072811;28;20430;-71
2022/06/27 01:14:01;;;;;;;0.15;0.15;;;18.30;99.90;;;;;;5073352;28;20099;-71
2022/06/27 01:16:27;;;;;;;0.10;0.10;;;18.30;99.90;;;;;;5053421;28;20084;-71
2022/06/27 01:18:53;;;;;;;0.25;0.25;;;18.30;99.90;;;;;;5054685;28;20134;-71
2022/06/27 01:21:21;;;;;;;0.25;0.25;;;18.40;99.90;;;;;;5071121;28;20794;-71
2022/06/27 01:23:48;;;;;;;0.03;0.03;;;18.40;99.90;;;;;;5073626;28;20057;-71
2022/06/27 01:26:15;;;;;;;0.10;0.10;;;18.40;99.90;;;;;;5072366;28;20052;-71
2022/06/27 01:28:40;;;;;;;0.30;0.30;;;18.40;99.90;;;;;;5050148;28;20057;-71
2022/06/27 01:31:06;;;;;;;1.52;0.17;;;18.40;99.90;;;;;;5050056;28;20503;-71
2022/06/27 01:33:32;;;;;;;0.00;0.00;;;18.40;99.90;;;;;;5037898;28;20041;-71
2022/06/27 01:38:43;;;;;;;0.00;0.00;;;18.40;99.90;;;;;;5070581;28;20053;-71
2022/06/27 01:41:08;;;;;;;6.43;1.15;;;18.40;99.90;;;;;;5071744;28;20519;-71
2022/06/27 01:43:34;;;;;;;0.10;0.10;;;18.50;99.90;;;;;;5070581;28;20076;-71
2022/06/27 01:46:00;;;;;;;1.35;1.25;;;18.50;99.90;;;;;;5071866;28;20143;-71
2022/06/27 01:48:28;;;;;;;0.10;0.10;;;18.60;99.90;;;;;;5072832;28;20094;-71
2022/06/27 01:50:57;;;;;;;0.52;0.20;;;18.50;99.90;;;;;;5062989;28;20063;-71
2022/06/27 01:53:25;;;;;;;0.00;0.00;;;18.50;99.90;;;;;;5071702;28;20045;-71
2022/06/27 01:55:51;;;;;;;0.10;0.10;;;18.50;99.90;;;;;;5072753;28;20074;-71
2022/06/27 01:58:17;;;;;;;0.47;0.47;;;18.50;99.90;;;;;;5070754;28;21041;-71
2022/06/27 02:00:43;;;;;;;0.22;0.22;;;18.50;99.90;;;;;;5071390;28;20106;-71
2022/06/27 02:03:09;;;;;;;0.00;0.00;;;18.50;99.90;;;;;;5054166;28;20044;-71
2022/06/27 02:05:34;;;;;;;0.05;0.05;;;18.50;99.90;;;;;;5052968;28;20076;-71
2022/06/27 02:08:03;;;;;;;0.00;0.00;;;18.50;99.90;;;;;;5071404;28;20052;-71
2022/06/27 02:10:29;;;;;;;0.32;0.25;;;18.40;99.90;;;;;;5054610;28;20048;-71
2022/06/27 02:12:55;;;;;;;1.20;0.28;;;18.40;99.90;;;;;;5071915;28;20037;-71
2022/06/27 02:15:21;;;;;;;0.10;0.10;;;18.40;99.90;;;;;;5060559;28;20075;-71
2022/06/27 02:17:48;;;;;;;0.10;0.10;;;18.30;99.90;;;;;;5092489;28;20578;-72
2022/06/27 02:20:13;;;;;;;0.13;0.13;;;18.30;99.90;;;;;;5073891;28;20036;-72
2022/06/27 02:22:40;;;;;;;0.00;0.00;;;18.30;99.90;;;;;;5081384;28;20331;-72
2022/06/27 02:25:06;;;;;;;0.10;0.10;;;18.30;99.90;;;;;;5092131;28;20036;-72
2022/06/27 02:27:34;;;;;;;0.25;0.25;;;18.30;99.90;;;;;;5092142;28;20048;-72
2022/06/27 02:29:59;;;;;;;0.10;0.10;;;18.30;99.90;;;;;;5070360;28;20414;-72
2022/06/27 02:32:27;;;;;;;0.08;0.08;;;18.30;99.90;;;;;;5072843;28;20104;-72
2022/06/27 02:34:56;;;;;;;1.27;0.43;;;18.20;99.90;;;;;;5092160;28;20040;-72
2022/06/27 02:37:23;;;;;;;0.00;0.00;;;18.20;99.90;;;;;;5084507;28;20514;-72
2022/06/27 02:39:48;;;;;;;0.08;0.08;;;18.10;99.90;;;;;;5079572;28;20040;-72
2022/06/27 02:42:19;;;;;;;0.15;0.15;;;18.20;99.90;;;;;;5073159;28;20092;-72
2022/06/27 02:44:48;;;;;;;0.00;0.00;;;18.20;99.90;;;;;;5089958;28;20047;-72
2022/06/27 02:47:14;;;;;;;0.15;0.15;;;18.20;99.90;;;;;;5073302;28;20072;-72
2022/06/27 02:49:41;;;;;;;0.00;0.00;;;18.10;99.90;;;;;;5050396;28;20079;-72
2022/06/27 02:52:18;;;;;;;0.25;0.20;;;18.10;99.90;;;;;;5072076;28;20047;-72
2022/06/27 02:54:57;;;;;;;0.00;0.00;;;18.20;99.90;;;;;;5073298;28;20062;-72
2022/06/27 02:57:23;;;;;;;0.03;0.03;;;18.10;99.90;;;;;;5081057;28;20507;-72
2022/06/27 02:59:51;;;;;;;0.00;0.00;;;18.20;99.90;;;;;;5071561;28;20045;-72
2022/06/27 03:02:17;;;;;;;0.10;0.10;;;18.20;99.90;;;;;;5051624;28;20186;-72
2022/06/27 03:04:42;;;;;;;0.28;0.28;;;18.20;99.90;;;;;;5071634;28;20138;-72
2022/06/27 03:07:08;;;;;;;0.20;0.20;;;18.20;99.90;;;;;;5073379;28;20067;-72
2022/06/27 03:09:34;;;;;;;0.20;0.20;;;18.10;99.90;;;;;;5080262;28;20467;-72
2022/06/27 03:12:00;;;;;;;0.43;0.40;;;18.00;99.90;;;;;;5070170;28;20041;-72
2022/06/27 03:14:25;;;;;;;0.10;0.10;;;18.10;99.90;;;;;;5052873;28;20540;-72
2022/06/27 03:16:51;;;;;;;0.10;0.10;;;18.10;99.90;;;;;;5086810;28;20047;-72
2022/06/27 03:19:17;;;;;;;0.10;0.10;;;18.10;99.90;;;;;;5087842;28;20131;-72
2022/06/27 03:21:42;;;;;;;0.30;0.30;;;18.10;99.90;;;;;;5069309;28;20129;-72
2022/06/27 03:24:08;;;;;;;0.20;0.20;;;18.10;99.90;;;;;;5052500;28;20041;-72
2022/06/27 03:26:34;;;;;;;0.10;0.10;;;18.10;99.90;;;;;;5070282;28;20395;-72
2022/06/27 03:29:02;;;;;;;0.30;0.30;;;18.10;99.90;;;;;;5058617;28;20044;-72
2022/06/27 03:31:28;;;;;;;0.43;0.20;;;18.10;99.90;;;;;;5067450;28;20097;-72
2022/06/27 03:33:54;;;;;;;0.20;0.20;;;18.00;99.90;;;;;;5085083;28;20048;-72
2022/06/27 03:36:20;;;;;;;0.10;0.10;;;18.10;99.90;;;;;;5072020;28;20071;-72
2022/06/27 03:38:45;;;;;;;0.00;0.00;;;18.00;99.90;;;;;;5090491;28;20086;-72
2022/06/27 03:41:11;;;;;;;0.77;0.77;;;18.00;99.90;;;;;;5070572;28;20037;-72
2022/06/27 03:43:36;;;;;;;0.15;0.15;;;18.10;99.90;;;;;;5046149;28;20053;-72
2022/06/27 03:46:03;;;;;;;0.90;0.90;;;18.00;99.90;;;;;;5066097;28;20048;-72
2022/06/27 03:51:12;;;;;;;0.25;0.20;;;18.10;99.90;;;;;;5052234;28;20048;-72
2022/06/27 03:53:38;;;;;;;0.10;0.10;;;18.10;99.90;;;;;;5047244;28;20496;-72
2022/06/27 03:56:04;;;;;;;0.52;0.22;;;18.00;99.90;;;;;;5048658;28;20045;-72
2022/06/27 03:58:30;;;;;;;0.30;0.30;;;18.00;99.90;;;;;;5051160;28;20048;-72
2022/06/27 04:00:55;;;;;;;1.48;1.38;;;18.00;99.90;;;;;;5067936;28;20043;-72
2022/06/27 04:03:21;;;;;;;0.03;0.03;;;18.00;99.90;;;;;;5068774;28;20043;-72
2022/06/27 04:05:46;;;;;;;0.43;0.25;;;18.10;99.90;;;;;;5067498;28;20045;-72
2022/06/27 04:08:12;;;;;;;0.15;0.15;;;18.10;99.90;;;;;;5079376;28;20456;-72
2022/06/27 04:10:38;;;;;;;0.00;0.00;;;18.10;99.90;;;;;;5090099;28;20048;-72
2022/06/27 04:13:04;;;;;;;0.20;0.20;;;18.10;99.90;;;;;;5072145;28;20039;-72
2022/06/27 04:15:29;;;;;;;0.10;0.10;;;18.10;99.90;;;;;;5076513;28;20028;-72
2022/06/27 04:17:55;;;;;;;0.10;0.10;;;18.10;99.90;;;;;;5049157;28;20041;-72
2022/06/27 04:20:21;;;;;;;0.10;0.10;;;18.10;99.90;;;;;;5049982;28;20427;-72
2022/06/27 04:22:46;;;;;;;0.88;0.63;;;18.10;99.90;;;;;;5031787;28;20048;-72
2022/06/27 04:25:12;;;;;;;0.03;0.03;;;18.10;99.90;;;;;;5066146;28;20051;-72
2022/06/27 04:27:37;;;;;;;0.00;0.00;;;18.10;99.90;;;;;;5070031;28;20423;-72
2022/06/27 04:30:04;;;;;;;0.08;0.08;;;18.20;99.90;;;;;;5046111;28;20041;-72
2022/06/27 04:32:29;;;;;;;0.00;0.00;;;18.20;99.90;;;;;;5088082;28;20052;-72
2022/06/27 04:34:55;;;;;;;0.10;0.10;;;18.20;99.90;;;;;;5089382;28;20051;-72
2022/06/27 04:37:21;;;;;;;0.03;0.03;;;18.20;99.90;;;;;;5073622;28;20054;-72
2022/06/27 04:39:47;;;;;;;0.60;0.60;;;18.20;99.90;;;;;;5071562;28;20491;-72
2022/06/27 04:42:13;;;;;;;0.08;0.08;;;18.20;99.90;;;;;;5093411;28;20055;-72
2022/06/27 04:44:43;;;;;;;0.75;0.30;;;18.20;99.90;;;;;;5076246;28;20094;-72
2022/06/27 04:47:12;;;;;;;0.08;0.08;;;18.30;99.90;;;;;;5075931;28;20048;-72
2022/06/27 04:49:38;;;;;;;0.35;0.28;;;18.30;99.90;;;;;;5088148;28;20112;-73
2022/06/27 04:52:06;;;;;;;0.00;0.00;;;18.30;99.90;;;;;;5093911;28;20051;-72
2022/06/27 04:54:32;;;;;;;0.40;0.40;;;18.30;99.90;;;;;;5075599;28;20082;-72
2022/06/27 04:56:58;;;;;;;0.00;0.00;;;18.40;99.90;;;;;;5072833;28;20503;-72
2022/06/27 04:59:23;;;;;;;0.15;0.15;;;18.40;99.90;;;;;;5093534;28;20055;-72
2022/06/27 05:01:50;;;;;;;0.10;0.10;;;18.40;99.90;;;;;;5094293;28;20044;-72
2022/06/27 05:04:17;;;;;;;0.15;0.15;;;18.40;99.90;;;;;;5074950;28;20059;-72
2022/06/27 05:06:43;;;;;;;2.85;0.35;;;18.40;99.90;;;;;;5087784;28;20405;-72
2022/06/27 05:09:09;;;;;;;0.10;0.10;;;18.50;99.90;;;;;;5072778;28;20037;-72
2022/06/27 05:11:35;;;;;;;0.57;0.57;;;18.60;99.90;;;;;;5073685;28;20055;-72
2022/06/27 05:14:01;;;;;;;0.22;0.22;;;18.60;99.90;;;;;;5073362;28;20400;-72
2022/06/27 05:16:26;;;;;;;6.43;1.08;;;18.70;99.90;;;;;;5055332;28;20045;-72
2022/06/27 05:18:52;;;;;;;0.10;0.10;;;18.80;99.90;;;;;;5053102;28;20049;-72
2022/06/27 05:21:17;;;;;;;0.00;0.00;;;18.80;99.90;;;;;;5073004;28;20409;-72
2022/06/27 05:23:43;;;;;;;0.00;0.00;;;18.80;99.90;;;;;;5073133;28;20048;-73
2022/06/27 05:26:09;;;;;;;0.10;0.10;;;18.90;99.90;;;;;;5054605;28;20048;-72
2022/06/27 05:28:35;;;;;;;0.57;0.52;;;18.90;99.90;;;;;;5069079;28;20035;-72
2022/06/27 05:31:00;;;;;;;0.28;0.20;;;18.90;99.90;;;;;;5092366;28;20044;-72
2022/06/27 05:33:26;;;;;;;0.10;0.10;;;19.00;99.90;;;;;;5057497;28;20489;-72
2022/06/27 05:35:52;;;;;;;1.40;0.35;;;19.00;99.90;;;;;;5068379;28;20595;-72
2022/06/27 05:38:18;;;;;;;0.32;0.17;;;19.00;99.90;;;;;;5070374;28;20067;-72
2022/06/27 05:40:45;;;;;;;0.10;0.10;;;19.00;99.90;;;;;;5076161;28;20076;-72
2022/06/27 05:43:11;;;;;;;0.20;0.20;;;19.00;99.90;;;;;;5072979;28;20036;-72
2022/06/27 05:45:37;;;;;;;0.90;0.60;;;18.90;99.90;;;;;;5051938;28;20095;-72
2022/06/27 05:48:04;;;;;;;0.20;0.20;;;19.00;99.90;;;;;;5072075;28;20052;-72
2022/06/27 05:50:30;;;;;;;0.22;0.22;;;19.00;99.90;;;;;;5092148;28;20476;-72
2022/06/27 05:52:59;;;;;;;0.30;0.25;;;19.00;99.90;;;;;;5071818;28;20052;-72
2022/06/27 05:55:28;;;;;;;0.00;0.00;;;19.10;99.90;;;;;;5070668;28;20542;-72
2022/06/27 05:57:56;;;;;;;0.10;0.10;;;19.10;99.90;;;;;;5072916;28;20094;-72
2022/06/27 06:00:23;;;;;;;0.30;0.30;;;19.10;99.90;;;;;;5071521;28;20108;-72
2022/06/27 06:02:49;;;;;;;0.00;0.00;;;19.00;99.90;;;;;;5071644;28;20048;-72
2022/06/27 06:05:17;;;;;;;0.05;0.05;;;19.00;99.90;;;;;;5050947;28;20472;-72
2022/06/27 06:07:43;;;;;;;0.00;0.00;;;19.00;99.90;;;;;;5051517;28;20124;-72
2022/06/27 06:10:09;;;;;;;0.25;0.25;;;19.10;99.90;;;;;;5052509;28;20108;-72
2022/06/27 06:12:35;;;;;;;0.38;0.38;;;19.10;99.90;;;;;;5038143;28;20052;-72
2022/06/27 06:15:02;;;;;;;0.20;0.20;;;19.10;99.90;;;;;;5080657;28;20044;-72
2022/06/27 06:17:29;;;;;;;0.10;0.10;;;19.10;99.90;;;;;;5092570;28;20097;-72
2022/06/27 06:19:55;;;;;;;0.00;0.00;;;19.20;99.90;;;;;;5092474;28;20040;-73
2022/06/27 06:22:20;;;;;;;1.92;1.77;;;19.30;99.90;;;;;;5085584;28;20048;-72
2022/06/27 06:24:49;;;;;;;0.20;0.20;;;19.30;99.90;;;;;;5093202;28;20036;-72
2022/06/27 06:27:15;;;;;;;3.17;0.30;;;19.30;99.90;;;;;;5074168;28;20498;-72
2022/06/27 06:29:41;;;;;;;0.13;0.13;;;19.30;99.90;;;;;;5081972;28;20043;-72
2022/06/27 06:32:07;;;;;;;0.00;0.00;;;19.30;99.90;;;;;;5074422;28;20108;-72
2022/06/27 06:34:34;;;;;;;0.10;0.10;;;19.30;99.90;;;;;;5091594;28;20040;-72
2022/06/27 06:37:00;;;;;;;0.10;0.10;;;19.30;99.90;;;;;;5089698;28;20052;-72
2022/06/27 06:39:25;;;;;;;0.93;0.90;;;19.40;99.90;;;;;;5084999;28;20067;-72
2022/06/27 06:41:52;;;;;;;0.00;0.00;;;19.30;99.90;;;;;;5071887;28;20392;-72
2022/06/27 06:44:18;;;;;;;0.20;0.20;;;19.30;99.90;;;;;;5072167;28;20082;-72
2022/06/27 06:46:43;;;;;;;0.10;0.10;;;19.30;99.90;;;;;;5057704;28;20071;-72
2022/06/27 06:49:10;;;;;;;0.20;0.20;;;19.30;99.90;;;;;;5091194;28;20087;-72
2022/06/27 06:51:39;;;;;;;0.75;0.75;;;19.40;99.90;;;;;;5074143;28;20050;-72
2022/06/27 06:54:06;;;;;;;0.10;0.10;;;19.40;99.90;;;;;;5091747;28;20052;-72
2022/06/27 06:56:33;;;;;;;0.40;0.40;;;19.40;99.90;;;;;;5089043;28;20048;-72
2022/06/27 06:58:59;;;;;;;0.00;0.00;;;19.40;99.90;;;;;;5073099;28;20090;-72
2022/06/27 07:01:27;;;;;;;0.10;0.10;;;19.40;99.90;;;;;;5086861;28;20045;-72
2022/06/27 07:03:54;;;;;;;0.10;0.10;;;19.40;99.90;;;;;;5070989;28;20059;-72
2022/06/27 07:06:24;;;;;;;1.05;0.32;;;19.30;99.90;;;;;;5049408;28;20045;-72
2022/06/27 07:08:53;;;;;;;0.10;0.10;;;19.30;99.90;;;;;;5071453;28;20492;-72
2022/06/27 07:11:21;;;;;;;1.75;0.30;;;19.20;99.90;;;;;;5052647;28;20075;-72
2022/06/27 07:13:48;;;;;;;0.00;0.00;;;19.20;99.90;;;;;;5053980;28;20044;-72
2022/06/27 07:16:14;;;;;;;0.45;0.45;;;19.20;99.90;;;;;;5069443;28;20036;-72
2022/06/27 07:18:40;;;;;;;0.30;0.17;;;19.20;99.90;;;;;;5070406;28;20056;-72
2022/06/27 07:21:06;;;;;;;2.05;0.55;;;19.20;99.90;;;;;;5053052;28;20402;-72
2022/06/27 07:23:33;;;;;;;0.95;0.80;;;19.20;99.90;;;;;;5069030;28;20442;-72
2022/06/27 07:25:58;;;;;;;0.00;0.00;;;19.10;99.90;;;;;;5050911;28;20052;-72
2022/06/27 07:28:26;;;;;;;5.07;1.85;;;19.20;99.90;;;;;;5070728;28;20059;-72
2022/06/27 07:30:51;;;;;;;0.00;0.00;;;19.20;99.90;;;;;;5070737;28;20059;-72
2022/06/27 07:33:17;;;;;;;0.20;0.20;;;19.20;99.90;;;;;;5065318;28;20351;-72
2022/06/27 07:35:43;;;;;;;0.20;0.20;;;19.20;99.90;;;;;;5067568;28;20119;-72
2022/06/27 07:38:09;;;;;;;0.65;0.40;;;19.20;99.90;;;;;;5069566;28;20044;-71
2022/06/27 07:40:35;;;;;;;1.25;0.90;;;19.20;99.90;;;;;;5052427;28;20087;-72
2022/06/27 07:43:01;;;;;;;0.05;0.05;;;19.20;99.90;;;;;;5070446;28;20052;-72
2022/06/27 07:45:27;;;;;;;1.98;0.20;;;19.20;99.90;;;;;;5049788;28;20047;-72
2022/06/27 07:47:56;;;;;;;1.35;0.73;;;19.30;99.90;;;;;;5070682;28;20183;-72
2022/06/27 07:50:37;;;;;;;0.28;0.28;;;19.30;99.90;;;;;;5061337;28;20048;-72
2022/06/27 07:53:14;;;;;;;0.20;0.20;;;19.40;99.90;;;;;;5052776;28;20076;-72
2022/06/27 07:55:40;;;;;;;1.77;0.57;;;19.40;99.90;;;;;;5068546;28;20118;-72
2022/06/27 07:58:07;;;;;;;0.10;0.10;;;19.40;99.90;;;;;;5069821;28;20088;-72
2022/06/27 08:00:34;;;;;;;0.00;0.00;;;19.40;99.90;;;;;;5051712;28;20045;-72
2022/06/27 08:03:36;;;;;;;0.00;0.00;;;19.30;99.90;;;;;;5063312;28;20123;-72
2022/06/27 08:05:46;;;;;;;0.30;0.30;;;19.30;99.90;;;;;;5069307;28;20442;-72
2022/06/27 08:08:11;;;;;;;0.10;0.10;;;19.30;99.90;;;;;;5051885;28;20052;-72
2022/06/27 08:10:37;;;;;;;0.20;0.20;;;19.30;99.90;;;;;;5069986;28;20055;-72
2022/06/27 08:13:03;;;;;;;0.10;0.10;;;19.40;99.90;;;;;;5066735;28;20040;-72
2022/06/27 08:15:29;;;;;;;0.10;0.10;;;19.40;99.90;;;;;;5052015;28;20037;-72
2022/06/27 08:17:58;;;;;;;0.05;0.05;;;19.40;99.90;;;;;;5090308;28;20434;-72
2022/06/27 08:20:23;;;;;;;0.10;0.10;;;19.50;99.90;;;;;;5071179;28;20071;-72
2022/06/27 08:22:51;;;;;;;0.00;0.00;;;19.50;99.90;;;;;;5090602;28;20082;-72
2022/06/27 08:25:17;;;;;;;0.03;0.03;;;19.50;99.90;;;;;;5060877;28;20123;-72
2022/06/27 08:27:45;;;;;;;0.00;0.00;;;19.50;99.90;;;;;;5051788;28;20045;-72
2022/06/27 08:30:14;;;;;;;2.05;0.90;;;19.50;99.90;;;;;;5051639;28;20048;-72
2022/06/27 08:32:40;;;;;;;0.52;0.30;;;19.50;99.90;;;;;;5047757;28;20206;-72
2022/06/27 08:35:07;;;;;;;0.10;0.10;;;19.60;99.90;;;;;;5031789;28;20064;-72
2022/06/27 08:37:33;;;;;;;0.10;0.10;;;19.60;99.90;;;;;;5062087;28;20483;-72
2022/06/27 08:40:01;;;;;;;0.00;0.00;;;19.60;99.90;;;;;;5079797;28;20126;-72
2022/06/27 08:42:28;;;;;;;0.00;0.00;;;19.50;99.90;;;;;;5068025;28;20052;-72
2022/06/27 08:44:55;;;;;;;0.40;0.40;;;19.50;99.90;;;;;;5070217;28;20040;-72
2022/06/27 08:47:21;;;;;;;0.00;0.00;;;19.60;99.90;;;;;;5052083;28;20060;-72
2022/06/27 08:49:52;;;;;;;0.13;0.13;;;19.60;99.90;;;;;;5051812;28;20045;-72
2022/06/27 08:52:18;;;;;;;0.03;0.03;;;19.70;99.90;;;;;;5085304;28;20048;-72
2022/06/27 08:54:45;;;;;;;0.20;0.20;;;19.90;99.90;;;;;;5086124;28;20136;-72
2022/06/27 08:57:11;;;;;;;1.73;0.65;;;20.00;99.90;;;;;;5068852;28;20105;-72
2022/06/27 08:59:37;;;;;;;0.50;0.50;;;20.00;99.90;;;;;;5069909;28;20076;-72
2022/06/27 09:02:03;;;;;;;0.55;0.43;;;20.10;99.90;;;;;;5069497;28;20480;-72
2022/06/27 09:04:30;;;;;;;0.73;0.52;;;20.20;99.90;;;;;;5069128;28;20040;-72
2022/06/27 09:06:56;;;;;;;0.10;0.10;;;20.20;99.90;;;;;;5070193;28;20037;-72
2022/06/27 09:09:24;;;;;;;0.00;0.00;;;20.20;99.90;;;;;;5066403;28;20336;-72
2022/06/27 09:11:50;;;;;;;0.57;0.57;;;20.30;99.90;;;;;;5070077;28;20119;-72
2022/06/27 09:14:36;;;;;;;0.10;0.10;;;20.30;99.90;;;;;;5051580;28;20068;-72
2022/06/27 09:17:04;;;;;;;0.80;0.75;;;20.30;99.90;;;;;;5069103;28;20123;-72
2022/06/27 09:19:53;;;;;;;0.00;0.00;;;20.30;99.90;;;;;;5081478;28;20048;-72
2022/06/27 09:22:20;;;;;;;0.00;0.00;;;20.50;99.90;;;;;;5089712;28;20078;-72
2022/06/27 09:25:09;;;;;;;0.00;0.00;;;20.60;99.90;;;;;;5074952;28;20131;-72
2022/06/27 09:27:53;;;;;;;1.08;0.65;;;20.70;99.90;;;;;;5086751;28;20072;-72
2022/06/27 09:30:20;;;;;;;0.50;0.50;;;20.70;99.90;;;;;;5092086;28;20044;-71
2022/06/27 09:32:49;;;;;;;0.20;0.20;;;20.70;99.90;;;;;;5055369;28;20052;-72
2022/06/27 09:35:27;;;;;;;0.20;0.20;;;20.60;99.90;;;;;;5048797;28;20060;-72
2022/06/27 09:37:57;;;;;;;0.10;0.10;;;20.70;99.90;;;;;;5043605;28;20041;-72
2022/06/27 09:40:25;;;;;;;2.55;1.95;;;20.70;99.90;;;;;;5054676;28;20051;-72
2022/06/27 09:42:54;;;;;;;0.10;0.10;;;20.80;99.90;;;;;;5073074;28;20063;-72
2022/06/27 09:45:22;;;;;;;0.10;0.10;;;20.80;99.90;;;;;;5071748;28;20078;-72
2022/06/27 09:47:50;;;;;;;0.00;0.00;;;20.80;99.90;;;;;;5051795;28;20120;-72
2022/06/27 09:50:16;;;;;;;0.00;0.00;;;20.80;99.90;;;;;;5051334;28;20045;-71
2022/06/27 09:52:42;;;;;;;0.00;0.00;;;20.90;99.90;;;;;;5034000;28;20052;-72
2022/06/27 09:55:08;;;;;;;0.00;0.00;;;20.90;99.90;;;;;;5052282;28;20053;-72
2022/06/27 09:57:34;;;;;;;0.00;0.00;;;20.90;99.90;;;;;;5065990;28;20125;-72
2022/06/27 10:00:01;;;;;;;0.10;0.10;;;20.90;99.90;;;;;;5071371;28;20045;-71
2022/06/27 10:02:28;;;;;;;0.45;0.45;;;20.90;99.90;;;;;;5064728;28;20040;-71
2022/06/27 10:04:54;;;;;;;0.00;0.00;;;20.80;99.90;;;;;;5092962;28;20051;-71
2022/06/27 10:07:22;;;;;;;0.00;0.00;;;20.80;99.90;;;;;;5073931;28;20546;-71
2022/06/27 10:09:52;;;;;;;0.10;0.10;;;20.80;99.90;;;;;;5090524;28;20052;-71
2022/06/27 10:12:37;;;;;;;0.00;0.00;;;20.80;99.90;;;;;;5092241;28;20128;-71
2022/06/27 10:15:14;;;;;;;0.00;0.00;;;20.80;99.90;;;;;;5063443;28;20541;-72
2022/06/27 10:17:45;;;;;;;0.08;0.08;;;20.70;99.90;;;;;;5085315;28;20063;-72
2022/06/27 10:20:16;;;;;;;0.15;0.15;;;20.60;99.90;;;;;;5091905;28;20119;-72
2022/06/27 10:22:42;;;;;;;0.10;0.10;;;20.60;99.90;;;;;;5061461;28;20542;-72
2022/06/27 10:25:26;;;;;;;0.10;0.10;;;20.60;99.90;;;;;;5071323;28;20056;-72
2022/06/27 10:28:10;;;;;;;0.00;0.00;;;20.70;99.90;;;;;;5071359;28;20397;-71
2022/06/27 10:30:42;;;;;;;0.00;0.00;;;20.70;99.90;;;;;;5076946;28;20442;-72
2022/06/27 10:33:25;;;;;;;0.30;0.10;;;20.70;99.90;;;;;;5091913;28;20051;-72
2022/06/27 10:38:29;;;;;;;0.00;0.00;;;20.80;99.90;;;;;;5071654;28;20578;-71
2022/06/27 10:40:56;;;;;;;0.15;0.15;;;20.90;99.90;;;;;;5047247;28;20051;-71
2022/06/27 10:43:40;;;;;;;0.10;0.10;;;20.90;99.90;;;;;;5068669;28;20139;-71
2022/06/27 10:46:09;;;;;;;0.10;0.10;;;21.00;99.90;;;;;;5053835;28;20040;-71
2022/06/27 10:48:39;;;;;;;3.53;0.30;;;21.00;99.90;;;;;;5051006;28;20052;-72
2022/06/27 10:51:28;;;;;;;0.00;0.00;;;21.00;99.90;;;;;;5067191;28;20056;-72
2022/06/27 10:54:06;;;;;;;0.05;0.05;;;20.90;99.90;;;;;;5053972;28;20055;-72
2022/06/27 10:56:33;;;;;;;0.10;0.10;;;20.90;99.90;;;;;;5046883;28;20095;-71
2022/06/27 10:59:07;;;;;;;0.05;0.05;;;20.80;99.90;;;;;;5051361;28;20555;-72
2022/06/27 11:01:34;;;;;;;0.30;0.30;;;20.70;99.90;;;;;;5054999;28;20045;-72
2022/06/27 11:04:00;;;;;;;0.08;0.08;;;20.70;99.90;;;;;;5049986;28;20049;-72
2022/06/27 11:06:26;;;;;;;0.00;0.00;;;20.70;99.90;;;;;;5033350;28;20055;-72
2022/06/27 11:08:54;;;;;;;0.00;0.00;;;20.70;99.90;;;;;;5033055;28;20041;-71
2022/06/27 11:11:22;;;;;;;0.08;0.08;;;20.70;99.90;;;;;;5081576;28;20055;-72
2022/06/27 11:13:56;;;;;;;0.00;0.00;;;20.80;99.90;;;;;;5090753;28;20079;-71
2022/06/27 11:16:31;;;;;;;0.10;0.10;;;20.80;99.90;;;;;;5052237;28;20492;-71
2022/06/27 11:19:03;;;;;;;0.00;0.00;;;20.80;99.90;;;;;;5053339;28;20127;-72
2022/06/27 11:21:32;;;;;;;0.10;0.10;;;20.90;99.90;;;;;;5050889;28;20048;-71
2022/06/27 11:24:05;;;;;;;0.32;0.32;;;20.90;99.90;;;;;;5070217;28;20049;-71
2022/06/27 11:26:45;;;;;;;0.13;0.13;;;20.80;99.90;;;;;;5071014;28;20094;-72
2022/06/27 11:32:03;;;;;;;0.13;0.13;;;20.80;99.90;;;;;;5090182;28;20063;-71
2022/06/27 11:34:31;;;;;;;0.32;0.15;;;20.80;99.90;;;;;;5067519;28;20037;-72
2022/06/27 11:36:59;;;;;;;0.00;0.00;;;20.80;99.90;;;;;;5069747;28;20052;-72
2022/06/27 11:39:28;;;;;;;0.10;0.10;;;20.90;99.90;;;;;;5070634;28;20036;-72
2022/06/27 11:41:59;;;;;;;0.10;0.10;;;21.00;99.90;;;;;;5062830;28;20055;-72
2022/06/27 11:44:27;;;;;;;0.00;0.00;;;21.10;99.90;;;;;;5069633;28;20055;-71
2022/06/27 11:47:02;;;;;;;0.15;0.08;;;21.20;99.90;;;;;;5069393;28;20053;-72
2022/06/27 11:49:30;;;;;;;0.10;0.10;;;21.20;99.90;;;;;;5052496;28;20503;-72
2022/06/27 11:52:11;;;;;;;0.20;0.20;;;21.30;99.90;;;;;;5070132;28;20123;-72
2022/06/27 11:54:43;;;;;;;0.00;0.00;;;21.30;99.90;;;;;;5060041;28;20446;-72
2022/06/27 11:57:54;;;;;;;0.00;0.00;;;21.30;99.90;;;;;;5071419;28;20361;-71
2022/06/27 12:00:28;;;;;;;0.10;0.10;;;21.30;99.90;;;;;;4968712;28;20059;-71
2022/06/27 12:03:10;;;;;;;0.25;0.25;;;21.20;99.90;;;;;;5062845;28;20053;-71
2022/06/27 12:05:38;;;;;;;0.55;0.55;;;21.30;99.90;;;;;;5051706;28;20059;-71
2022/06/27 12:08:06;;;;;;;0.10;0.10;;;21.20;99.90;;;;;;5046168;28;20060;-71
2022/06/27 12:10:46;;;;;;;0.00;0.00;;;21.30;99.90;;;;;;5069358;28;20097;-71
2022/06/27 12:13:16;;;;;;;0.00;0.00;;;21.30;99.90;;;;;;5069615;28;20056;-71
2022/06/27 12:15:45;;;;;;;0.00;0.00;;;21.50;99.90;;;;;;5078698;28;20040;-71
2022/06/27 12:18:12;;;;;;;0.10;0.10;;;21.60;99.90;;;;;;5090117;28;20059;-72
2022/06/27 12:20:40;;;;;;;0.00;0.00;;;21.80;99.90;;;;;;5055618;28;20071;-71
2022/06/27 12:23:05;;;;;;;0.00;0.00;;;21.90;99.90;;;;;;5048486;28;20052;-71
2022/06/27 12:25:35;;;;;;;0.10;0.10;;;22.00;99.90;;;;;;5049952;28;20056;-71
2022/06/27 12:28:02;;;;;;;0.80;0.32;;;22.00;99.90;;;;;;5049063;28;20543;-72
2022/06/27 12:30:27;;;;;;;0.08;0.08;;;21.90;99.90;;;;;;5057050;28;20082;-72
2022/06/27 12:32:53;;;;;;;0.55;0.43;;;21.70;99.90;;;;;;5048800;28;20076;-71
2022/06/27 12:35:19;;;;;;;0.10;0.10;;;21.70;99.90;;;;;;5048908;28;20418;-72
2022/06/27 12:37:45;;;;;;;0.35;0.35;;;21.70;99.90;;;;;;5032412;28;20041;-71
2022/06/27 12:40:11;;;;;;;0.10;0.10;;;21.60;99.90;;;;;;5075808;28;20062;-71
2022/06/27 12:42:37;;;;;;;0.17;0.17;;;21.50;99.90;;;;;;5077794;28;20139;-72
2022/06/27 12:45:03;;;;;;;0.10;0.10;;;21.50;99.90;;;;;;5048335;28;20477;-71
2022/06/27 12:47:29;;;;;;;0.17;0.15;;;21.50;99.90;;;;;;5048845;28;20094;-71
2022/06/27 12:49:55;;;;;;;0.13;0.10;;;21.50;99.90;;;;;;5047283;28;20076;-71
2022/06/27 12:52:20;;;;;;;0.05;0.03;;;21.50;99.90;;;;;;5051775;28;20048;-71
2022/06/27 12:54:46;;;;;;;0.35;0.35;;;21.50;99.90;;;;;;5069215;28;20508;-72
2022/06/27 12:57:14;;;;;;;0.00;0.00;;;21.50;99.90;;;;;;5073518;28;20048;-71
2022/06/27 12:59:41;;;;;;;0.00;0.00;;;21.40;99.90;;;;;;5075533;28;20499;-71
2022/06/27 13:02:08;;;;;;;1.88;0.38;;;21.40;99.90;;;;;;5088921;28;20447;-71